This is the latest recevied weather packets stored in our database for station/object Ostrach. If no packets are shown the sender has not sent any weather packets the latest 1 day(s).
| Time | Temp. | Humidity | Pressure | Rain* | Wind** | Luminosity | Snow |
|---|---|---|---|---|---|---|---|
| 1836273905 | 11.11° C | 94% | 1020 hPa | 0 mm | 0 m/s | - | - |
| 1778023929 | 9.44° C | 90% | 1006.7 hPa | 0 mm | 0.89 m/s, 245° | - | - |
| 1778022129 | 9.44° C | 88% | 1006.8 hPa | 0 mm | 0 m/s | - | - |
| 1778020330 | 10° C | 87% | 1007 hPa | 0 mm | 0 m/s | - | - |
| 1778018529 | 10.56° C | 86% | 1006.8 hPa | 0.51 mm | 0 m/s | - | - |
| 1778016731 | 11.11° C | 84% | 1006.8 hPa | 0.51 mm | 0.45 m/s, 245° | - | - |
| 1778014935 | 11.67° C | 82% | 1007 hPa | 0.51 mm | 3.13 m/s, 245° | - | - |
| 1778013129 | 12.22° C | 82% | 1006.8 hPa | 0.51 mm | 3.13 m/s, 245° | - | - |
| 1778011330 | 12.78° C | 81% | 1006.8 hPa | 0.51 mm | 2.24 m/s, 245° | - | - |
| 1778009529 | 12.78° C | 80% | 1006.6 hPa | 0.51 mm | 4.02 m/s, 245° | - | - |
| 1778007735 | 13.33° C | 82% | 1006.3 hPa | 0.51 mm | 4.02 m/s, 251° | - | - |
| 1778005932 | 13.89° C | 81% | 1005.8 hPa | 0.51 mm | 4.02 m/s, 251° | - | - |
| 1778004131 | 15° C | 72% | 1005.5 hPa | 0.25 mm | 3.13 m/s, 251° | - | - |
| 1778002330 | 15.56° C | 68% | 1005.3 hPa | 0.25 mm | 2.24 m/s, 251° | - | - |
| 1778000530 | 16.67° C | 61% | 1005 hPa | 0.25 mm | 4.92 m/s, 258° | - | - |
| 1777998731 | 18.33° C | 59% | 1004.8 hPa | 0.25 mm | 0.89 m/s, 294° | - | - |
| 1777995130 | 17.22° C | 61% | 1004.7 hPa | 0.25 mm | 0 m/s | - | - |
| 1777993336 | 16.67° C | 63% | 1004.9 hPa | 0.25 mm | 0 m/s | - | - |
| 1777991532 | 16.11° C | 68% | 1004.9 hPa | 0.25 mm | 0 m/s | - | - |
| 1777989730 | 15.56° C | 75% | 1005 hPa | 0.25 mm | 1.79 m/s, 294° | - | - |
| 1777987930 | 15.56° C | 78% | 1005 hPa | 0.25 mm | 4.02 m/s, 294° | - | - |
| 1777986130 | 15.56° C | 79% | 1005.2 hPa | 0.25 mm | 0.89 m/s, 294° | - | - |
| 1777984330 | 15° C | 81% | 1005.5 hPa | 0.25 mm | 1.34 m/s, 294° | - | - |
| 1777982530 | 15.56° C | 77% | 1005.7 hPa | 0 mm | 0 m/s | - | - |
| 1777980730 | 16.67° C | 68% | 1005.7 hPa | 0 mm | 1.79 m/s, 294° | - | - |
* Rain since midnight (hover to see other rain measurements)
** Current wind speed in m/s (hover to see current wind gust speed)